Grand Forks Air Force Base, ND

5:29 PM CDT on July 23, 2014 (GMT -0500)
Grafton Municipal (KGAF) Elev 823 ft | 48.40 °N, 97.37 °W | Change Station

Current weather conditions updated 14 minutes ago

Clear
Clear
73 °F
Feels Like 73 °F
N
7
Wind Variable Wind from North

Tomorrow is forecast to be Much Warmer than today. Showers and thunderstorms late tomorrow night.

Today
High -- | Low -- °F
--% Chance of Precip.
Yesterday
High -- | Low -- °F
Precip. -- in
5:54 AM 9:16 PM
Waning Crescent, 8% visible
Pressure 30.25 in
Visibility 10.0 miles
Clouds Clear
Dew Point 55 °F
Humidity 53%
Rainfall 0.00 in
Snow Depth Not available.
UV 5 out of 12
Pollen 7.00 out of 12
Air Quality Not available.
Flu Activity Not available.
METAR KGAF 232215Z AUTO 36006KT 10SM CLR 23/13 A3025 RMK AO2

More Conditions Fewer Conditions

Pressure 30.25 in
Visibility 10.0 miles
Clouds Clear
Dew Point 55 °F
Humidity 53%
Rainfall 0.00 in
Snow Depth Not available.
UV 5 out of 12
Pollen 7.00 out of 12
Air Quality Not available.
Flu Activity Not available.
METAR KGAF 232215Z AUTO 36006KT 10SM CLR 23/13 A3025 RMK AO2

More Conditions Fewer Conditions

10-Day Weather Forecast

Almanac

Astronomy

Jul. 23, 2014 Rise Set
Actual Time 5:54 AM CDT 9:16 PM CDT
Civil Twilight 5:16 AM CDT 9:54 PM CDT
Nautical Twilight 4:26 AM CDT 10:44 PM CDT
Astronomical Twilight 3:21 AM CDT 11:48 PM CDT
Moon 3:16 AM CDT 6:44 PM CDT
Length of Visible Light 16h 37m
Length of Day
15h 21m
Tomorrow will be 2m 21s shorter.
Waning Crescent, 8% of the Moon is Illuminated
Today
Waning Crescent
Jul 26
New
Aug 3
First Quarter
Aug 10
Full
Aug 17
Last Quarter

Today's Extremes

State Highs State Lows

Community

WunderPhotos

Upload Photos

1,736,806 photos uploaded!

Nearby

Snow Depth

Station Depth Elevation
No new snow has been reported.

Earthquake Activity

City Distance Mag. Time & Date
No recent earthquake activity has been reported nearby.
Minimum magnitude displayed is 2.5.

Coastal Water Temperatures

Place Temperature
No Stations Reporting

Nearby Weather Stations

Station Location Temp. Heat Index Dew Point Humidity Wind Precip. Elev Updated Type
Grand Forks, ND 72.9 °F 76 °F 57 °F 59% SW  at  3.3 mph 0.00 in / hr 830 ft 3:42 PM CDT Rapid Fire

Show More Stations Show Fewer Stations